Aérodrome :
LOGIN :

S'inscrire | Disclaimer

   EN    FR    IT 

 










Légende :    VFR   VFR Marginal   IFR   IFR Intensif   IFR Très Intensif
Visi : 
Plafond : 
>= 8 km
>= 3000ft
5 à 8 km
1000 à 3000 ft
1500m à 5 km
500 à 1000 ft
800 à 1500m
200 à 500 ft
< 800m
< 200 ft
Symboles :   Orages  Brouillard  Fortes neiges  Fortes précipitations  Vent > 20 kt
SIGMETs :   Divers  Orages  Givrage  Turbulence  Onde Orograph.  Cendres Volcan.






- Altitude de l'aérodrome : 194 ft


EBCV - Chièvres

DERNIER METAR :
  • 212025Z AUTO VRB02KT 0100 -FZRA /// M03/M03 Q1037 RED

METARs EXPIRÉS :
  • 212024Z AUTO VRB02KT 0150 -FZRA /// M03/M03 Q1037 RED
  • 212010Z AUTO VRB02KT 0150 -SN /// M03/M03 Q1037 RED
  • 212003Z AUTO VRB01KT 0150 -RASN /// M03/M03 Q1037 RED
  • 211935Z AUTO VRB02KT 0150 -SN /// M03/M03 Q1037 RED
  • 211925Z AUTO VRB02KT 0150 -RA /// M02/M02 Q1037 RED
  • 211911Z AUTO VRB01KT 0150 -RASN /// M02/M02 Q1037 RED
  • 211825Z AUTO 33003KT 0150 -FZRA /// M02/M02 Q1038 RED
  • 211809Z AUTO 32003KT 0150 -FZRA /// M02/M02 Q1038 RED

TAF TAF EBCV
Valide du 21 à 19h jusqu'au 22 à 07h UTC


211541Z 2119/2207 VRB02KT 0300 FZFG SCT001 BKN003 BY EBWM



MET'MAP, la Météo Aéronautique d'un coup d'oeil ! - Copyright ORBIFLY Décembre 2007 - Disclaimer

ORBIFLY MET'MAP TEAM :

Programmation & Développement : Alexandra Zaïnal
Sur une idée originale de : Baudouin d'Aumeries
Assistance à la programmation : Marc-Olivier Méhu
Soutien technique & logistique : Manuel Goepfert

Contact : metmap@orbifly.com




SOURCES & CREDITS :

   NOAA